Sheridan Park, Washington
Current Conditions -  °F | °C
As of 8:15 PM on Friday 19 Dec 2014 (Local Time) from KPWT Reporting Station
Broken Clouds Broken Clouds  
Wind Chill:   Ceiling: 6000
Heat Index:   Visibility: 10mi
Dew Point:   Wind: 6mph
Humidity: 93%   Direction: 190°S
Pressure: 29.93"   Gusts: NA
Location:  47.6314°N, 122.638°W
Report Text: KPWT 200415Z AUTO 19005KT 10SM SCT050 BKN060 07/06 A2993 RMK AO1
Loading
Personal Weather Stations






























Interactive Weather Map New forecast layout! Learn more

10-Day Weather Forecast

Advertisements
Track Severe Weather on mobile